sensor_id;sensor_type;location;lat;lon;timestamp;P1;durP1;ratioP1;P2;durP2;ratioP2
41661;SDS011;27351;45.992;12.666;2022-11-04T00:01:26;54.38;;;30.27;;
41661;SDS011;27351;45.992;12.666;2022-11-04T00:03:52;53.33;;;30.17;;
41661;SDS011;27351;45.992;12.666;2022-11-04T00:06:18;54.70;;;28.23;;
41661;SDS011;27351;45.992;12.666;2022-11-04T00:08:47;56.97;;;30.43;;
41661;SDS011;27351;45.992;12.666;2022-11-04T00:11:13;51.40;;;28.73;;
41661;SDS011;27351;45.992;12.666;2022-11-04T00:13:57;47.60;;;27.00;;
41661;SDS011;27351;45.992;12.666;2022-11-04T00:16:23;49.92;;;27.92;;
41661;SDS011;27351;45.992;12.666;2022-11-04T00:19:07;45.78;;;27.02;;
41661;SDS011;27351;45.992;12.666;2022-11-04T00:21:32;45.00;;;26.73;;
41661;SDS011;27351;45.992;12.666;2022-11-04T00:24:17;45.00;;;25.20;;
41661;SDS011;27351;45.992;12.666;2022-11-04T00:27:01;44.65;;;25.73;;
41661;SDS011;27351;45.992;12.666;2022-11-04T00:29:45;47.15;;;27.52;;
41661;SDS011;27351;45.992;12.666;2022-11-04T00:32:10;52.00;;;26.10;;
41661;SDS011;27351;45.992;12.666;2022-11-04T00:34:54;52.50;;;28.60;;
41661;SDS011;27351;45.992;12.666;2022-11-04T00:37:20;54.20;;;28.63;;
41661;SDS011;27351;45.992;12.666;2022-11-04T00:39:46;50.75;;;28.58;;
41661;SDS011;27351;45.992;12.666;2022-11-04T00:42:11;60.67;;;30.70;;
41661;SDS011;27351;45.992;12.666;2022-11-04T00:44:37;55.17;;;29.00;;
41661;SDS011;27351;45.992;12.666;2022-11-04T00:47:03;63.53;;;31.73;;
41661;SDS011;27351;45.992;12.666;2022-11-04T00:49:28;67.55;;;31.42;;
41661;SDS011;27351;45.992;12.666;2022-11-04T00:51:54;66.30;;;31.05;;
41661;SDS011;27351;45.992;12.666;2022-11-04T00:54:20;73.20;;;32.72;;
41661;SDS011;27351;45.992;12.666;2022-11-04T00:56:45;73.15;;;32.65;;
41661;SDS011;27351;45.992;12.666;2022-11-04T00:59:13;75.90;;;32.90;;
41661;SDS011;27351;45.992;12.666;2022-11-04T01:01:39;74.03;;;31.93;;
41661;SDS011;27351;45.992;12.666;2022-11-04T01:04:04;78.80;;;31.60;;
41661;SDS011;27351;45.992;12.666;2022-11-04T01:06:30;80.67;;;32.97;;
41661;SDS011;27351;45.992;12.666;2022-11-04T01:09:00;74.27;;;30.60;;
41661;SDS011;27351;45.992;12.666;2022-11-04T01:11:26;75.90;;;32.17;;
41661;SDS011;27351;45.992;12.666;2022-11-04T01:13:55;79.07;;;31.83;;
41661;SDS011;27351;45.992;12.666;2022-11-04T01:16:21;76.07;;;31.23;;
41661;SDS011;27351;45.992;12.666;2022-11-04T01:18:47;72.53;;;30.77;;
41661;SDS011;27351;45.992;12.666;2022-11-04T01:21:13;76.33;;;30.70;;
41661;SDS011;27351;45.992;12.666;2022-11-04T01:23:39;76.82;;;32.03;;
41661;SDS011;27351;45.992;12.666;2022-11-04T01:26:05;74.38;;;29.83;;
41661;SDS011;27351;45.992;12.666;2022-11-04T01:28:31;76.40;;;31.33;;
41661;SDS011;27351;45.992;12.666;2022-11-04T01:30:57;73.27;;;28.50;;
41661;SDS011;27351;45.992;12.666;2022-11-04T01:33:22;73.80;;;30.47;;
41661;SDS011;27351;45.992;12.666;2022-11-04T01:35:49;71.65;;;27.98;;
41661;SDS011;27351;45.992;12.666;2022-11-04T01:38:15;72.32;;;28.92;;
41661;SDS011;27351;45.992;12.666;2022-11-04T01:40:41;70.87;;;29.00;;
41661;SDS011;27351;45.992;12.666;2022-11-04T01:43:17;76.88;;;30.70;;
41661;SDS011;27351;45.992;12.666;2022-11-04T01:45:47;70.10;;;28.85;;
41661;SDS011;27351;45.992;12.666;2022-11-04T01:48:16;69.20;;;29.00;;
41661;SDS011;27351;45.992;12.666;2022-11-04T01:50:45;75.73;;;28.80;;
41661;SDS011;27351;45.992;12.666;2022-11-04T01:53:11;72.00;;;29.30;;
41661;SDS011;27351;45.992;12.666;2022-11-04T01:55:42;74.65;;;27.92;;
41661;SDS011;27351;45.992;12.666;2022-11-04T01:58:10;70.15;;;28.00;;
41661;SDS011;27351;45.992;12.666;2022-11-04T02:00:37;71.97;;;27.70;;
41661;SDS011;27351;45.992;12.666;2022-11-04T02:03:23;74.13;;;27.95;;
41661;SDS011;27351;45.992;12.666;2022-11-04T02:05:51;74.35;;;28.02;;
41661;SDS011;27351;45.992;12.666;2022-11-04T02:08:17;66.28;;;26.58;;
41661;SDS011;27351;45.992;12.666;2022-11-04T02:11:16;69.30;;;28.20;;
41661;SDS011;27351;45.992;12.666;2022-11-04T02:13:35;72.28;;;28.48;;
41661;SDS011;27351;45.992;12.666;2022-11-04T02:16:06;69.13;;;25.90;;
41661;SDS011;27351;45.992;12.666;2022-11-04T02:24:30;58.03;;;24.10;;
41661;SDS011;27351;45.992;12.666;2022-11-04T02:26:53;39.58;;;17.75;;
41661;SDS011;27351;45.992;12.666;2022-11-04T02:32:02;31.05;;;13.68;;
41661;SDS011;27351;45.992;12.666;2022-11-04T02:34:46;33.60;;;14.65;;
41661;SDS011;27351;45.992;12.666;2022-11-04T02:39:47;31.30;;;14.77;;
41661;SDS011;27351;45.992;12.666;2022-11-04T02:42:17;33.58;;;16.08;;
41661;SDS011;27351;45.992;12.666;2022-11-04T02:44:47;39.03;;;17.57;;
41661;SDS011;27351;45.992;12.666;2022-11-04T02:47:18;37.47;;;17.52;;
41661;SDS011;27351;45.992;12.666;2022-11-04T02:49:51;39.53;;;16.35;;
41661;SDS011;27351;45.992;12.666;2022-11-04T02:52:32;36.28;;;17.75;;
41661;SDS011;27351;45.992;12.666;2022-11-04T02:57:45;42.63;;;18.25;;
41661;SDS011;27351;45.992;12.666;2022-11-04T03:00:12;38.72;;;17.65;;
41661;SDS011;27351;45.992;12.666;2022-11-04T03:02:39;36.08;;;17.25;;
41661;SDS011;27351;45.992;12.666;2022-11-04T03:05:07;41.50;;;18.67;;
41661;SDS011;27351;45.992;12.666;2022-11-04T03:07:35;41.20;;;18.23;;
41661;SDS011;27351;45.992;12.666;2022-11-04T03:10:04;37.85;;;15.95;;
41661;SDS011;27351;45.992;12.666;2022-11-04T03:12:39;37.55;;;17.02;;
41661;SDS011;27351;45.992;12.666;2022-11-04T03:15:08;34.42;;;15.93;;
41661;SDS011;27351;45.992;12.666;2022-11-04T03:20:22;34.80;;;15.75;;
41661;SDS011;27351;45.992;12.666;2022-11-04T03:22:49;36.53;;;15.82;;
41661;SDS011;27351;45.992;12.666;2022-11-04T03:25:14;31.90;;;14.90;;
41661;SDS011;27351;45.992;12.666;2022-11-04T03:27:44;35.27;;;15.33;;
41661;SDS011;27351;45.992;12.666;2022-11-04T03:30:21;35.05;;;14.50;;
41661;SDS011;27351;45.992;12.666;2022-11-04T03:32:58;36.30;;;15.77;;
41661;SDS011;27351;45.992;12.666;2022-11-04T03:35:26;30.77;;;13.70;;
41661;SDS011;27351;45.992;12.666;2022-11-04T03:37:52;31.20;;;13.23;;
41661;SDS011;27351;45.992;12.666;2022-11-04T03:40:17;32.42;;;14.50;;
41661;SDS011;27351;45.992;12.666;2022-11-04T03:42:49;32.70;;;12.85;;
41661;SDS011;27351;45.992;12.666;2022-11-04T03:45:18;28.88;;;12.70;;
41661;SDS011;27351;45.992;12.666;2022-11-04T03:47:43;27.90;;;12.40;;
41661;SDS011;27351;45.992;12.666;2022-11-04T03:50:16;26.83;;;12.10;;
41661;SDS011;27351;45.992;12.666;2022-11-04T03:52:43;19.42;;;10.00;;
41661;SDS011;27351;45.992;12.666;2022-11-04T03:55:09;22.13;;;10.57;;
41661;SDS011;27351;45.992;12.666;2022-11-04T03:57:55;21.67;;;10.10;;
41661;SDS011;27351;45.992;12.666;2022-11-04T04:00:22;18.15;;;8.70;;
41661;SDS011;27351;45.992;12.666;2022-11-04T04:07:51;16.47;;;8.27;;
41661;SDS011;27351;45.992;12.666;2022-11-04T04:10:40;19.10;;;8.85;;
41661;SDS011;27351;45.992;12.666;2022-11-04T04:15:49;18.90;;;8.70;;
41661;SDS011;27351;45.992;12.666;2022-11-04T04:18:18;17.45;;;8.63;;
41661;SDS011;27351;45.992;12.666;2022-11-04T04:20:47;17.30;;;8.87;;
41661;SDS011;27351;45.992;12.666;2022-11-04T04:23:18;16.52;;;7.85;;
41661;SDS011;27351;45.992;12.666;2022-11-04T04:26:05;17.73;;;8.55;;
41661;SDS011;27351;45.992;12.666;2022-11-04T04:28:50;15.70;;;8.25;;
41661;SDS011;27351;45.992;12.666;2022-11-04T04:31:17;19.48;;;8.50;;
41661;SDS011;27351;45.992;12.666;2022-11-04T04:34:04;16.15;;;8.35;;
41661;SDS011;27351;45.992;12.666;2022-11-04T04:36:30;16.30;;;8.55;;
41661;SDS011;27351;45.992;12.666;2022-11-04T04:38:57;16.05;;;8.13;;
41661;SDS011;27351;45.992;12.666;2022-11-04T04:41:45;21.85;;;8.27;;
41661;SDS011;27351;45.992;12.666;2022-11-04T04:44:30;14.85;;;7.63;;
41661;SDS011;27351;45.992;12.666;2022-11-04T04:47:15;14.95;;;7.22;;
41661;SDS011;27351;45.992;12.666;2022-11-04T04:49:51;15.75;;;7.63;;
41661;SDS011;27351;45.992;12.666;2022-11-04T04:52:17;19.85;;;7.53;;
41661;SDS011;27351;45.992;12.666;2022-11-04T04:54:43;12.88;;;5.57;;
41661;SDS011;27351;45.992;12.666;2022-11-04T04:57:09;10.45;;;4.40;;
41661;SDS011;27351;45.992;12.666;2022-11-04T04:59:34;8.63;;;4.37;;
41661;SDS011;27351;45.992;12.666;2022-11-04T05:02:01;10.00;;;4.67;;
41661;SDS011;27351;45.992;12.666;2022-11-04T05:04:26;9.47;;;4.70;;
41661;SDS011;27351;45.992;12.666;2022-11-04T05:06:51;10.15;;;4.80;;
41661;SDS011;27351;45.992;12.666;2022-11-04T05:09:17;10.70;;;5.33;;
41661;SDS011;27351;45.992;12.666;2022-11-04T05:11:42;11.60;;;5.47;;
41661;SDS011;27351;45.992;12.666;2022-11-04T05:14:08;12.65;;;5.57;;
41661;SDS011;27351;45.992;12.666;2022-11-04T05:16:33;15.70;;;5.93;;
41661;SDS011;27351;45.992;12.666;2022-11-04T05:18:59;12.80;;;5.47;;
41661;SDS011;27351;45.992;12.666;2022-11-04T05:21:25;12.43;;;4.88;;
41661;SDS011;27351;45.992;12.666;2022-11-04T05:23:50;9.97;;;4.53;;
41661;SDS011;27351;45.992;12.666;2022-11-04T05:26:16;11.27;;;5.33;;
41661;SDS011;27351;45.992;12.666;2022-11-04T05:28:42;9.82;;;5.10;;
41661;SDS011;27351;45.992;12.666;2022-11-04T05:31:07;13.05;;;5.50;;
41661;SDS011;27351;45.992;12.666;2022-11-04T05:33:33;14.03;;;5.20;;
41661;SDS011;27351;45.992;12.666;2022-11-04T05:36:07;14.37;;;6.13;;
41661;SDS011;27351;45.992;12.666;2022-11-04T05:38:33;12.82;;;5.65;;
41661;SDS011;27351;45.992;12.666;2022-11-04T05:40:59;15.40;;;6.00;;
41661;SDS011;27351;45.992;12.666;2022-11-04T05:43:24;17.03;;;5.77;;
41661;SDS011;27351;45.992;12.666;2022-11-04T05:45:50;15.50;;;6.15;;
41661;SDS011;27351;45.992;12.666;2022-11-04T05:48:15;10.40;;;6.13;;
41661;SDS011;27351;45.992;12.666;2022-11-04T05:50:41;14.30;;;6.07;;
41661;SDS011;27351;45.992;12.666;2022-11-04T05:53:07;14.02;;;6.18;;
41661;SDS011;27351;45.992;12.666;2022-11-04T05:55:32;15.98;;;6.72;;
41661;SDS011;27351;45.992;12.666;2022-11-04T05:57:58;15.00;;;6.30;;
41661;SDS011;27351;45.992;12.666;2022-11-04T06:00:24;13.23;;;6.30;;
41661;SDS011;27351;45.992;12.666;2022-11-04T06:02:50;14.43;;;6.03;;
41661;SDS011;27351;45.992;12.666;2022-11-04T06:05:16;13.50;;;5.87;;
41661;SDS011;27351;45.992;12.666;2022-11-04T06:07:41;14.80;;;5.72;;
41661;SDS011;27351;45.992;12.666;2022-11-04T06:10:07;12.13;;;5.77;;
41661;SDS011;27351;45.992;12.666;2022-11-04T06:12:32;12.77;;;5.70;;
41661;SDS011;27351;45.992;12.666;2022-11-04T06:14:58;13.57;;;5.97;;
41661;SDS011;27351;45.992;12.666;2022-11-04T06:17:23;15.95;;;7.20;;
41661;SDS011;27351;45.992;12.666;2022-11-04T06:19:49;17.23;;;6.77;;
41661;SDS011;27351;45.992;12.666;2022-11-04T06:22:15;14.80;;;6.33;;
41661;SDS011;27351;45.992;12.666;2022-11-04T06:24:41;13.38;;;6.47;;
41661;SDS011;27351;45.992;12.666;2022-11-04T06:27:06;14.18;;;6.32;;
41661;SDS011;27351;45.992;12.666;2022-11-04T06:29:32;14.43;;;7.10;;
41661;SDS011;27351;45.992;12.666;2022-11-04T06:31:58;12.37;;;6.17;;
41661;SDS011;27351;45.992;12.666;2022-11-04T06:34:23;13.20;;;6.88;;
41661;SDS011;27351;45.992;12.666;2022-11-04T06:36:49;14.18;;;6.65;;
41661;SDS011;27351;45.992;12.666;2022-11-04T06:39:15;14.43;;;6.30;;
41661;SDS011;27351;45.992;12.666;2022-11-04T06:41:40;19.40;;;7.18;;
41661;SDS011;27351;45.992;12.666;2022-11-04T06:44:06;11.57;;;6.00;;
41661;SDS011;27351;45.992;12.666;2022-11-04T06:48:57;17.27;;;6.63;;
41661;SDS011;27351;45.992;12.666;2022-11-04T06:51:23;16.60;;;6.43;;
41661;SDS011;27351;45.992;12.666;2022-11-04T06:53:49;13.97;;;6.83;;
41661;SDS011;27351;45.992;12.666;2022-11-04T06:56:15;18.13;;;6.40;;
41661;SDS011;27351;45.992;12.666;2022-11-04T06:58:40;14.13;;;6.32;;
41661;SDS011;27351;45.992;12.666;2022-11-04T07:01:06;13.20;;;5.72;;
41661;SDS011;27351;45.992;12.666;2022-11-04T07:03:32;12.40;;;5.70;;
41661;SDS011;27351;45.992;12.666;2022-11-04T07:05:57;17.53;;;5.93;;
41661;SDS011;27351;45.992;12.666;2022-11-04T07:08:23;13.13;;;5.23;;
41661;SDS011;27351;45.992;12.666;2022-11-04T07:10:48;14.37;;;5.17;;
41661;SDS011;27351;45.992;12.666;2022-11-04T07:13:14;16.08;;;5.32;;
41661;SDS011;27351;45.992;12.666;2022-11-04T07:15:41;15.13;;;5.37;;
41661;SDS011;27351;45.992;12.666;2022-11-04T07:18:07;13.97;;;5.50;;
41661;SDS011;27351;45.992;12.666;2022-11-04T07:20:35;14.13;;;7.10;;
41661;SDS011;27351;45.992;12.666;2022-11-04T07:23:01;21.58;;;5.82;;
41661;SDS011;27351;45.992;12.666;2022-11-04T07:25:27;13.70;;;5.80;;
41661;SDS011;27351;45.992;12.666;2022-11-04T07:27:52;16.88;;;5.80;;
41661;SDS011;27351;45.992;12.666;2022-11-04T07:30:18;13.93;;;5.80;;
41661;SDS011;27351;45.992;12.666;2022-11-04T07:32:45;20.88;;;5.85;;
41661;SDS011;27351;45.992;12.666;2022-11-04T07:35:11;14.95;;;5.53;;
41661;SDS011;27351;45.992;12.666;2022-11-04T07:37:36;18.40;;;5.83;;
41661;SDS011;27351;45.992;12.666;2022-11-04T07:40:03;15.83;;;5.57;;
41661;SDS011;27351;45.992;12.666;2022-11-04T07:42:29;15.30;;;5.43;;
41661;SDS011;27351;45.992;12.666;2022-11-04T07:44:55;17.50;;;6.15;;
41661;SDS011;27351;45.992;12.666;2022-11-04T07:47:20;17.70;;;6.05;;
41661;SDS011;27351;45.992;12.666;2022-11-04T07:49:46;16.77;;;5.35;;
41661;SDS011;27351;45.992;12.666;2022-11-04T07:52:12;16.05;;;5.35;;
41661;SDS011;27351;45.992;12.666;2022-11-04T07:54:38;16.00;;;4.85;;
41661;SDS011;27351;45.992;12.666;2022-11-04T07:57:03;12.93;;;4.57;;
41661;SDS011;27351;45.992;12.666;2022-11-04T07:59:29;14.13;;;4.80;;
41661;SDS011;27351;45.992;12.666;2022-11-04T08:01:55;18.53;;;6.27;;
41661;SDS011;27351;45.992;12.666;2022-11-04T08:04:20;12.90;;;5.43;;
41661;SDS011;27351;45.992;12.666;2022-11-04T08:06:46;15.45;;;5.05;;
41661;SDS011;27351;45.992;12.666;2022-11-04T08:09:12;11.55;;;4.85;;
41661;SDS011;27351;45.992;12.666;2022-11-04T08:11:37;14.23;;;4.67;;
41661;SDS011;27351;45.992;12.666;2022-11-04T08:14:03;14.57;;;4.17;;
41661;SDS011;27351;45.992;12.666;2022-11-04T08:16:29;16.93;;;5.10;;
41661;SDS011;27351;45.992;12.666;2022-11-04T08:18:54;16.63;;;4.72;;
41661;SDS011;27351;45.992;12.666;2022-11-04T08:21:26;14.50;;;3.67;;
41661;SDS011;27351;45.992;12.666;2022-11-04T08:23:52;13.57;;;5.45;;
41661;SDS011;27351;45.992;12.666;2022-11-04T08:26:18;14.97;;;4.07;;
41661;SDS011;27351;45.992;12.666;2022-11-04T08:28:46;15.38;;;4.25;;
41661;SDS011;27351;45.992;12.666;2022-11-04T08:31:16;18.02;;;4.03;;
41661;SDS011;27351;45.992;12.666;2022-11-04T08:33:42;14.18;;;3.97;;
41661;SDS011;27351;45.992;12.666;2022-11-04T08:36:10;17.20;;;3.80;;
41661;SDS011;27351;45.992;12.666;2022-11-04T08:38:37;10.52;;;3.55;;
41661;SDS011;27351;45.992;12.666;2022-11-04T08:41:03;13.73;;;3.70;;
41661;SDS011;27351;45.992;12.666;2022-11-04T08:43:29;14.60;;;3.83;;
41661;SDS011;27351;45.992;12.666;2022-11-04T08:45:55;9.07;;;3.60;;
41661;SDS011;27351;45.992;12.666;2022-11-04T08:48:21;15.25;;;4.30;;
41661;SDS011;27351;45.992;12.666;2022-11-04T08:50:47;15.68;;;3.75;;
41661;SDS011;27351;45.992;12.666;2022-11-04T08:53:13;15.23;;;3.67;;
41661;SDS011;27351;45.992;12.666;2022-11-04T08:55:39;15.63;;;3.60;;
41661;SDS011;27351;45.992;12.666;2022-11-04T08:58:04;12.43;;;3.65;;
41661;SDS011;27351;45.992;12.666;2022-11-04T09:00:30;13.27;;;3.47;;
41661;SDS011;27351;45.992;12.666;2022-11-04T09:02:57;13.15;;;3.40;;
41661;SDS011;27351;45.992;12.666;2022-11-04T09:05:23;14.02;;;3.78;;
41661;SDS011;27351;45.992;12.666;2022-11-04T09:07:49;11.97;;;3.40;;
41661;SDS011;27351;45.992;12.666;2022-11-04T09:10:15;16.80;;;4.20;;
41661;SDS011;27351;45.992;12.666;2022-11-04T09:12:42;14.63;;;3.92;;
41661;SDS011;27351;45.992;12.666;2022-11-04T09:15:08;12.45;;;3.35;;
41661;SDS011;27351;45.992;12.666;2022-11-04T09:17:33;12.07;;;3.85;;
41661;SDS011;27351;45.992;12.666;2022-11-04T09:19:59;13.18;;;4.22;;
41661;SDS011;27351;45.992;12.666;2022-11-04T09:22:25;14.52;;;4.35;;
41661;SDS011;27351;45.992;12.666;2022-11-04T09:24:50;11.15;;;4.50;;
41661;SDS011;27351;45.992;12.666;2022-11-04T09:27:16;10.33;;;4.57;;
41661;SDS011;27351;45.992;12.666;2022-11-04T09:29:42;10.33;;;4.30;;
41661;SDS011;27351;45.992;12.666;2022-11-04T09:32:07;10.30;;;4.30;;
41661;SDS011;27351;45.992;12.666;2022-11-04T09:34:33;9.27;;;4.10;;
41661;SDS011;27351;45.992;12.666;2022-11-04T09:36:59;9.27;;;3.97;;
41661;SDS011;27351;45.992;12.666;2022-11-04T09:39:25;7.25;;;3.10;;
41661;SDS011;27351;45.992;12.666;2022-11-04T09:41:56;8.32;;;2.85;;
41661;SDS011;27351;45.992;12.666;2022-11-04T09:47:00;5.78;;;2.75;;
41661;SDS011;27351;45.992;12.666;2022-11-04T09:49:36;6.75;;;2.60;;
41661;SDS011;27351;45.992;12.666;2022-11-04T09:52:05;5.40;;;2.40;;
41661;SDS011;27351;45.992;12.666;2022-11-04T09:54:43;4.03;;;2.13;;
41661;SDS011;27351;45.992;12.666;2022-11-04T09:57:15;3.37;;;1.43;;
41661;SDS011;27351;45.992;12.666;2022-11-04T09:59:42;3.65;;;1.27;;
41661;SDS011;27351;45.992;12.666;2022-11-04T10:10:17;1.67;;;0.80;;
41661;SDS011;27351;45.992;12.666;2022-11-04T10:12:23;2.35;;;1.05;;
41661;SDS011;27351;45.992;12.666;2022-11-04T10:20:16;1.20;;;0.60;;
41661;SDS011;27351;45.992;12.666;2022-11-04T10:22:57;2.00;;;0.70;;
41661;SDS011;27351;45.992;12.666;2022-11-04T10:28:00;2.83;;;0.82;;
41661;SDS011;27351;45.992;12.666;2022-11-04T10:30:27;2.33;;;0.70;;
41661;SDS011;27351;45.992;12.666;2022-11-04T10:37:57;3.37;;;0.77;;
41661;SDS011;27351;45.992;12.666;2022-11-04T10:40:26;2.45;;;0.80;;
41661;SDS011;27351;45.992;12.666;2022-11-04T10:42:53;1.42;;;0.60;;
41661;SDS011;27351;45.992;12.666;2022-11-04T10:45:20;1.42;;;0.65;;
41661;SDS011;27351;45.992;12.666;2022-11-04T10:47:54;1.13;;;0.40;;
41661;SDS011;27351;45.992;12.666;2022-11-04T10:50:29;2.00;;;0.80;;
41661;SDS011;27351;45.992;12.666;2022-11-04T10:53:30;1.73;;;0.55;;
41661;SDS011;27351;45.992;12.666;2022-11-04T10:58:39;0.82;;;0.50;;
41661;SDS011;27351;45.992;12.666;2022-11-04T11:03:46;1.83;;;0.87;;
41661;SDS011;27351;45.992;12.666;2022-11-04T11:08:38;2.70;;;0.97;;
41661;SDS011;27351;45.992;12.666;2022-11-04T11:11:18;0.90;;;0.60;;
41661;SDS011;27351;45.992;12.666;2022-11-04T11:17:16;0.75;;;0.40;;
41661;SDS011;27351;45.992;12.666;2022-11-04T11:19:54;1.10;;;0.30;;
41661;SDS011;27351;45.992;12.666;2022-11-04T11:22:37;1.20;;;0.50;;
41661;SDS011;27351;45.992;12.666;2022-11-04T11:25:27;0.73;;;0.50;;
41661;SDS011;27351;45.992;12.666;2022-11-04T11:28:10;1.15;;;0.57;;
41661;SDS011;27351;45.992;12.666;2022-11-04T11:30:56;1.50;;;0.50;;
41661;SDS011;27351;45.992;12.666;2022-11-04T11:33:34;0.63;;;0.43;;
41661;SDS011;27351;45.992;12.666;2022-11-04T11:36:28;0.75;;;0.40;;
41661;SDS011;27351;45.992;12.666;2022-11-04T11:44:36;0.77;;;0.30;;
41661;SDS011;27351;45.992;12.666;2022-11-04T11:47:10;0.90;;;0.35;;
41661;SDS011;27351;45.992;12.666;2022-11-04T11:49:43;2.35;;;0.50;;
41661;SDS011;27351;45.992;12.666;2022-11-04T11:54:53;0.77;;;0.40;;
41661;SDS011;27351;45.992;12.666;2022-11-04T11:57:38;0.70;;;0.40;;
41661;SDS011;27351;45.992;12.666;2022-11-04T12:00:12;1.80;;;0.55;;
41661;SDS011;27351;45.992;12.666;2022-11-04T12:05:16;0.50;;;0.40;;
41661;SDS011;27351;45.992;12.666;2022-11-04T12:07:53;0.77;;;0.30;;
41661;SDS011;27351;45.992;12.666;2022-11-04T12:13:01;1.48;;;0.80;;
41661;SDS011;27351;45.992;12.666;2022-11-04T12:15:46;1.85;;;0.60;;
41661;SDS011;27351;45.992;12.666;2022-11-04T12:18:24;1.15;;;0.60;;
41661;SDS011;27351;45.992;12.666;2022-11-04T12:23:34;0.80;;;0.40;;
41661;SDS011;27351;45.992;12.666;2022-11-04T12:26:12;0.60;;;0.40;;
41661;SDS011;27351;45.992;12.666;2022-11-04T12:31:17;0.30;;;0.30;;
41661;SDS011;27351;45.992;12.666;2022-11-04T12:36:38;0.90;;;0.30;;
41661;SDS011;27351;45.992;12.666;2022-11-04T12:44:07;0.73;;;0.40;;
41661;SDS011;27351;45.992;12.666;2022-11-04T12:46:45;1.58;;;0.30;;
41661;SDS011;27351;45.992;12.666;2022-11-04T12:52:09;0.98;;;0.43;;
41661;SDS011;27351;45.992;12.666;2022-11-04T13:04:53;2.10;;;0.40;;
41661;SDS011;27351;45.992;12.666;2022-11-04T13:07:28;1.00;;;0.30;;
41661;SDS011;27351;45.992;12.666;2022-11-04T13:09:56;0.90;;;0.50;;
41661;SDS011;27351;45.992;12.666;2022-11-04T13:12:29;0.93;;;0.47;;
41661;SDS011;27351;45.992;12.666;2022-11-04T13:15:18;0.60;;;0.30;;
41661;SDS011;27351;45.992;12.666;2022-11-04T13:17:42;1.20;;;0.50;;
41661;SDS011;27351;45.992;12.666;2022-11-04T13:22:40;1.35;;;0.80;;
41661;SDS011;27351;45.992;12.666;2022-11-04T13:27:41;0.87;;;0.70;;
41661;SDS011;27351;45.992;12.666;2022-11-04T13:35:25;1.40;;;0.70;;
41661;SDS011;27351;45.992;12.666;2022-11-04T13:40:23;0.80;;;0.43;;
41661;SDS011;27351;45.992;12.666;2022-11-04T13:45:16;1.88;;;0.57;;
41661;SDS011;27351;45.992;12.666;2022-11-04T13:47:44;0.95;;;0.40;;
41661;SDS011;27351;45.992;12.666;2022-11-04T13:52:52;1.08;;;0.45;;
41661;SDS011;27351;45.992;12.666;2022-11-04T13:55:18;1.42;;;0.50;;
41661;SDS011;27351;45.992;12.666;2022-11-04T13:57:53;0.60;;;0.50;;
41661;SDS011;27351;45.992;12.666;2022-11-04T14:00:23;0.43;;;0.40;;
41661;SDS011;27351;45.992;12.666;2022-11-04T14:02:50;0.90;;;0.60;;
41661;SDS011;27351;45.992;12.666;2022-11-04T14:15:58;0.73;;;0.50;;
41661;SDS011;27351;45.992;12.666;2022-11-04T14:18:26;1.23;;;0.70;;
41661;SDS011;27351;45.992;12.666;2022-11-04T14:21:14;1.02;;;0.60;;
41661;SDS011;27351;45.992;12.666;2022-11-04T14:23:39;0.80;;;0.60;;
41661;SDS011;27351;45.992;12.666;2022-11-04T14:26:12;1.27;;;0.60;;
41661;SDS011;27351;45.992;12.666;2022-11-04T14:28:40;0.60;;;0.52;;
41661;SDS011;27351;45.992;12.666;2022-11-04T14:31:10;2.30;;;0.70;;
41661;SDS011;27351;45.992;12.666;2022-11-04T14:33:47;0.95;;;0.40;;
41661;SDS011;27351;45.992;12.666;2022-11-04T14:38:53;0.47;;;0.40;;
41661;SDS011;27351;45.992;12.666;2022-11-04T14:43:47;0.90;;;0.43;;
41661;SDS011;27351;45.992;12.666;2022-11-04T14:46:17;0.93;;;0.70;;
41661;SDS011;27351;45.992;12.666;2022-11-04T14:48:44;1.38;;;0.60;;
41661;SDS011;27351;45.992;12.666;2022-11-04T14:52:00;1.10;;;0.50;;
41661;SDS011;27351;45.992;12.666;2022-11-04T14:54:09;1.13;;;0.60;;
41661;SDS011;27351;45.992;12.666;2022-11-04T14:56:37;1.20;;;0.50;;
41661;SDS011;27351;45.992;12.666;2022-11-04T14:59:03;1.30;;;0.57;;
41661;SDS011;27351;45.992;12.666;2022-11-04T15:01:36;0.70;;;0.50;;
41661;SDS011;27351;45.992;12.666;2022-11-04T15:04:45;1.00;;;0.50;;
41661;SDS011;27351;45.992;12.666;2022-11-04T15:09:23;2.30;;;0.80;;
41661;SDS011;27351;45.992;12.666;2022-11-04T15:11:50;0.80;;;0.40;;
41661;SDS011;27351;45.992;12.666;2022-11-04T15:14:35;1.50;;;0.60;;
41661;SDS011;27351;45.992;12.666;2022-11-04T15:17:02;1.40;;;0.50;;
41661;SDS011;27351;45.992;12.666;2022-11-04T15:19:28;4.22;;;0.70;;
41661;SDS011;27351;45.992;12.666;2022-11-04T15:21:55;3.45;;;0.60;;
41661;SDS011;27351;45.992;12.666;2022-11-04T15:24:22;0.75;;;0.50;;
41661;SDS011;27351;45.992;12.666;2022-11-04T15:26:48;2.20;;;0.60;;
41661;SDS011;27351;45.992;12.666;2022-11-04T15:29:14;2.38;;;0.57;;
41661;SDS011;27351;45.992;12.666;2022-11-04T15:32:03;0.93;;;0.50;;
41661;SDS011;27351;45.992;12.666;2022-11-04T15:34:27;2.10;;;1.10;;
41661;SDS011;27351;45.992;12.666;2022-11-04T15:36:55;2.20;;;0.90;;
41661;SDS011;27351;45.992;12.666;2022-11-04T15:39:25;1.52;;;0.90;;
41661;SDS011;27351;45.992;12.666;2022-11-04T15:41:53;2.40;;;0.90;;
41661;SDS011;27351;45.992;12.666;2022-11-04T15:44:43;2.05;;;0.90;;
41661;SDS011;27351;45.992;12.666;2022-11-04T15:49:41;3.25;;;1.15;;
41661;SDS011;27351;45.992;12.666;2022-11-04T15:52:11;2.72;;;1.00;;
41661;SDS011;27351;45.992;12.666;2022-11-04T15:54:38;2.60;;;1.23;;
41661;SDS011;27351;45.992;12.666;2022-11-04T15:57:15;1.70;;;0.90;;
41661;SDS011;27351;45.992;12.666;2022-11-04T15:59:45;4.30;;;1.17;;
41661;SDS011;27351;45.992;12.666;2022-11-04T16:02:32;1.85;;;1.20;;
41661;SDS011;27351;45.992;12.666;2022-11-04T16:13:32;1.80;;;1.10;;
41661;SDS011;27351;45.992;12.666;2022-11-04T16:15:39;3.28;;;1.02;;
41661;SDS011;27351;45.992;12.666;2022-11-04T16:18:19;3.20;;;1.33;;
41661;SDS011;27351;45.992;12.666;2022-11-04T16:20:46;5.57;;;1.30;;
41661;SDS011;27351;45.992;12.666;2022-11-04T16:23:15;6.32;;;1.80;;
41661;SDS011;27351;45.992;12.666;2022-11-04T16:25:42;2.10;;;1.33;;
41661;SDS011;27351;45.992;12.666;2022-11-04T16:28:16;2.27;;;1.43;;
41661;SDS011;27351;45.992;12.666;2022-11-04T16:30:54;3.45;;;1.50;;
41661;SDS011;27351;45.992;12.666;2022-11-04T16:33:20;3.13;;;1.48;;
41661;SDS011;27351;45.992;12.666;2022-11-04T16:35:45;3.63;;;1.40;;
41661;SDS011;27351;45.992;12.666;2022-11-04T16:38:11;3.63;;;1.53;;
41661;SDS011;27351;45.992;12.666;2022-11-04T16:40:37;3.57;;;1.93;;
41661;SDS011;27351;45.992;12.666;2022-11-04T16:43:03;3.73;;;1.63;;
41661;SDS011;27351;45.992;12.666;2022-11-04T16:45:32;4.23;;;1.60;;
41661;SDS011;27351;45.992;12.666;2022-11-04T16:47:58;4.35;;;1.50;;
41661;SDS011;27351;45.992;12.666;2022-11-04T16:50:24;2.43;;;1.20;;
41661;SDS011;27351;45.992;12.666;2022-11-04T16:52:50;3.00;;;1.48;;
41661;SDS011;27351;45.992;12.666;2022-11-04T16:55:16;2.60;;;1.08;;
41661;SDS011;27351;45.992;12.666;2022-11-04T16:57:42;2.13;;;1.25;;
41661;SDS011;27351;45.992;12.666;2022-11-04T17:00:16;2.90;;;1.10;;
41661;SDS011;27351;45.992;12.666;2022-11-04T17:02:43;1.10;;;0.90;;
41661;SDS011;27351;45.992;12.666;2022-11-04T17:05:08;3.00;;;1.30;;